createdAt,value
2023-07-18T00:00:20.160Z,21.78
2023-07-18T00:02:48.133Z,21.96
2023-07-18T00:05:15.772Z,21.89
2023-07-18T00:07:44.373Z,22.08
2023-07-18T00:10:12.868Z,22.64
2023-07-18T00:12:41.696Z,22.47
2023-07-18T00:15:10.862Z,22.53
2023-07-18T00:17:39.291Z,22.28
2023-07-18T00:20:13.689Z,21.68
2023-07-18T00:22:42.337Z,21.65
2023-07-18T00:25:12.358Z,21.64
2023-07-18T00:27:41.467Z,21.83
2023-07-18T00:30:13.698Z,22.05
2023-07-18T00:32:46.035Z,21.89
2023-07-18T00:35:18.043Z,21.67
2023-07-18T00:37:45.918Z,21.51
2023-07-18T00:40:16.091Z,21.40
2023-07-18T00:42:48.812Z,21.38
2023-07-18T00:45:17.143Z,21.24
2023-07-18T00:47:47.153Z,21.54
2023-07-18T00:50:19.829Z,21.62
2023-07-18T00:52:56.255Z,21.46
2023-07-18T00:55:24.528Z,21.39
2023-07-18T00:57:54.295Z,21.17
2023-07-18T01:00:24.032Z,21.12
2023-07-18T01:02:52.626Z,21.55
2023-07-18T01:05:21.259Z,20.97
2023-07-18T01:07:49.219Z,20.60
2023-07-18T01:10:26.435Z,20.77
2023-07-18T01:13:01.986Z,20.63
2023-07-18T01:15:34.688Z,20.60
2023-07-18T01:18:09.999Z,20.78
2023-07-18T01:20:39.462Z,20.53
2023-07-18T01:23:06.875Z,20.72
2023-07-18T01:25:36.255Z,20.80
2023-07-18T01:28:04.895Z,20.68
2023-07-18T01:30:32.203Z,20.64
2023-07-18T01:32:59.527Z,20.79
2023-07-18T01:35:29.252Z,20.88
2023-07-18T01:37:59.711Z,20.58
2023-07-18T01:40:28.169Z,20.57
2023-07-18T01:42:58.416Z,20.75
2023-07-18T01:45:29.317Z,20.13
2023-07-18T01:47:58.215Z,20.06
2023-07-18T01:50:25.680Z,20.51
2023-07-18T01:52:53.829Z,20.56
2023-07-18T01:55:23.710Z,20.30
2023-07-18T01:57:51.750Z,20.26
2023-07-18T02:00:21.948Z,19.83
2023-07-18T02:02:55.341Z,19.93
2023-07-18T02:05:26.801Z,19.86
2023-07-18T02:07:55.266Z,19.69
2023-07-18T02:10:26.954Z,20.20
2023-07-18T02:13:02.828Z,20.34
2023-07-18T02:15:31.719Z,20.36
2023-07-18T02:17:59.277Z,19.80
2023-07-18T02:20:26.775Z,19.60
2023-07-18T02:22:54.127Z,19.47
2023-07-18T02:25:22.509Z,19.68
2023-07-18T02:27:51.377Z,19.76
2023-07-18T02:30:18.607Z,19.62
2023-07-18T02:32:46.154Z,19.77
2023-07-18T02:35:19.949Z,19.85
2023-07-18T02:37:48.116Z,19.69
2023-07-18T02:40:19.150Z,19.87
2023-07-18T02:42:47.333Z,19.55
2023-07-18T02:45:15.353Z,19.41
2023-07-18T02:47:42.945Z,19.49
2023-07-18T02:50:11.222Z,19.10
2023-07-18T02:52:40.253Z,19.37
2023-07-18T02:55:09.278Z,19.37
2023-07-18T02:57:37.242Z,19.62
2023-07-18T03:00:12.120Z,19.52
2023-07-18T03:02:39.812Z,19.35
2023-07-18T03:05:08.671Z,19.37
2023-07-18T03:07:35.868Z,19.40
2023-07-18T03:10:04.767Z,19.21
2023-07-18T03:12:32.110Z,19.34
2023-07-18T03:14:59.814Z,19.36
2023-07-18T03:17:27.274Z,19.44
2023-07-18T03:19:55.464Z,19.32
2023-07-18T03:22:22.964Z,19.19
2023-07-18T03:24:50.924Z,19.17
2023-07-18T03:27:19.276Z,19.34
2023-07-18T03:29:46.614Z,19.34
2023-07-18T03:32:14.397Z,19.28
2023-07-18T03:34:42.800Z,19.42
2023-07-18T03:37:11.031Z,19.41
2023-07-18T03:39:38.548Z,19.51
2023-07-18T03:42:06.550Z,19.29
2023-07-18T03:44:34.197Z,19.50
2023-07-18T03:47:11.148Z,19.56
2023-07-18T03:49:47.909Z,19.82
2023-07-18T03:52:15.291Z,19.62
2023-07-18T03:54:44.271Z,19.60
2023-07-18T03:57:13.424Z,19.52
2023-07-18T03:59:41.607Z,19.43
2023-07-18T04:02:09.202Z,18.98
2023-07-18T04:04:36.560Z,19.56
2023-07-18T04:07:04.246Z,19.66
2023-07-18T04:09:32.144Z,19.17
2023-07-18T04:11:59.366Z,19.24
2023-07-18T04:14:26.724Z,19.61
2023-07-18T04:16:54.043Z,19.66
2023-07-18T04:19:24.748Z,19.84
2023-07-18T04:21:51.947Z,19.42
2023-07-18T04:24:19.369Z,19.30
2023-07-18T04:26:48.502Z,19.22
2023-07-18T04:29:15.789Z,19.69
2023-07-18T04:31:43.179Z,19.63
2023-07-18T04:34:10.396Z,19.52
2023-07-18T04:36:38.127Z,19.80
2023-07-18T04:39:07.030Z,19.77
2023-07-18T04:41:45.145Z,20.58
2023-07-18T04:44:17.433Z,22.18
2023-07-18T04:46:45.056Z,23.65
2023-07-18T04:49:12.440Z,24.70
2023-07-18T04:51:39.606Z,25.05
2023-07-18T04:54:08.146Z,26.17
2023-07-18T04:56:35.876Z,27.25
2023-07-18T04:59:03.673Z,28.52
2023-07-18T05:01:31.313Z,29.27
2023-07-18T05:03:59.812Z,29.86
2023-07-18T05:06:27.054Z,30.32
2023-07-18T05:08:54.931Z,30.88
2023-07-18T05:11:22.434Z,31.28
2023-07-18T05:13:50.166Z,30.68
2023-07-18T05:16:17.789Z,30.49
2023-07-18T05:18:45.186Z,31.57
2023-07-18T05:21:12.958Z,31.94
2023-07-18T05:23:40.119Z,32.52
2023-07-18T05:26:09.364Z,32.63
2023-07-18T05:28:36.512Z,32.35
2023-07-18T05:31:10.732Z,32.31
2023-07-18T05:33:38.262Z,32.61
2023-07-18T05:36:06.389Z,31.69
2023-07-18T05:38:33.734Z,31.39
2023-07-18T05:41:00.881Z,32.08
2023-07-18T05:43:28.081Z,33.91
2023-07-18T05:45:55.986Z,34.66
2023-07-18T05:48:23.697Z,35.69
2023-07-18T05:50:50.995Z,35.82
2023-07-18T05:53:18.570Z,36.98
2023-07-18T05:55:46.159Z,37.52
2023-07-18T05:58:14.407Z,38.49
2023-07-18T06:00:43.106Z,38.95
2023-07-18T06:03:10.503Z,37.48
2023-07-18T06:05:37.925Z,38.21
2023-07-18T06:08:06.404Z,38.57
2023-07-18T06:10:34.111Z,38.65
2023-07-18T06:13:01.422Z,39.21
2023-07-18T06:15:28.948Z,38.22
2023-07-18T06:17:56.217Z,37.57
2023-07-18T06:20:23.443Z,38.19
2023-07-18T06:22:50.919Z,38.85
2023-07-18T06:25:18.459Z,39.25
2023-07-18T06:27:45.648Z,39.60
2023-07-18T06:30:13.575Z,40.82
2023-07-18T06:32:41.203Z,40.28
2023-07-18T06:35:23.208Z,40.50
2023-07-18T06:37:53.953Z,40.89
2023-07-18T06:40:21.467Z,41.66
2023-07-18T06:42:48.820Z,42.65
2023-07-18T06:45:16.314Z,41.09
2023-07-18T06:47:45.256Z,41.82
2023-07-18T06:50:13.171Z,42.95
2023-07-18T06:52:40.682Z,41.96
2023-07-18T06:55:11.900Z,42.25
2023-07-18T06:57:43.328Z,42.88
2023-07-18T07:00:13.978Z,43.94
2023-07-18T07:02:41.766Z,44.82
2023-07-18T07:05:10.187Z,44.74
2023-07-18T07:07:37.416Z,45.30
2023-07-18T07:10:09.831Z,45.24
2023-07-18T07:12:37.749Z,44.68
2023-07-18T07:15:06.522Z,44.63
2023-07-18T07:17:34.088Z,46.34
2023-07-18T07:20:01.931Z,46.93
2023-07-18T07:22:29.220Z,46.89
2023-07-18T07:24:56.534Z,46.45
2023-07-18T07:27:24.286Z,47.10
2023-07-18T07:29:53.118Z,46.51
2023-07-18T07:32:20.783Z,47.38
2023-07-18T07:34:48.173Z,48.25
2023-07-18T07:37:15.709Z,47.49
2023-07-18T07:39:43.360Z,48.00
2023-07-18T07:42:10.611Z,48.11
2023-07-18T07:44:38.047Z,48.54
2023-07-18T07:47:06.311Z,47.25
2023-07-18T07:49:33.982Z,48.92
2023-07-18T07:52:01.538Z,48.20
2023-07-18T07:54:28.712Z,48.62
2023-07-18T07:56:56.874Z,49.71
2023-07-18T07:59:25.048Z,49.46
2023-07-18T08:01:53.733Z,50.17
2023-07-18T08:04:21.273Z,50.95
2023-07-18T08:06:48.620Z,50.87
2023-07-18T08:09:16.258Z,51.41
2023-07-18T08:11:43.955Z,52.26
2023-07-18T08:14:11.169Z,52.68
2023-07-18T08:16:38.571Z,52.97
2023-07-18T08:19:06.457Z,52.75
2023-07-18T08:21:33.904Z,52.97
2023-07-18T08:24:02.012Z,53.78
2023-07-18T08:26:29.374Z,54.51
2023-07-18T08:28:56.675Z,55.00
2023-07-18T08:31:24.071Z,55.18
2023-07-18T08:33:51.917Z,54.94
2023-07-18T08:36:19.387Z,51.38
2023-07-18T08:38:51.257Z,50.48
2023-07-18T08:41:23.290Z,51.50
2023-07-18T08:43:51.445Z,51.15
2023-07-18T08:46:20.161Z,52.74
2023-07-18T08:48:51.674Z,53.97
2023-07-18T08:51:19.541Z,54.52
2023-07-18T08:53:47.135Z,54.40
2023-07-18T08:56:15.056Z,54.21
2023-07-18T08:58:42.742Z,54.53
2023-07-18T09:01:10.275Z,54.54
2023-07-18T09:03:37.742Z,54.04
2023-07-18T09:06:21.179Z,52.11
2023-07-18T09:08:50.538Z,52.82
2023-07-18T09:11:22.393Z,53.02
2023-07-18T09:13:50.106Z,50.79
2023-07-18T09:16:21.888Z,52.60
2023-07-18T09:18:56.029Z,53.41
2023-07-18T09:21:24.841Z,54.12
2023-07-18T09:23:53.883Z,54.06
2023-07-18T09:26:22.887Z,53.02
2023-07-18T09:28:52.495Z,52.34
2023-07-18T09:31:23.773Z,53.43
2023-07-18T09:33:55.473Z,53.84
2023-07-18T09:36:26.364Z,54.30
2023-07-18T09:38:53.922Z,54.56
2023-07-18T09:41:24.005Z,54.42
2023-07-18T09:44:02.863Z,54.51
2023-07-18T09:46:42.413Z,54.02
2023-07-18T09:49:14.787Z,53.11
2023-07-18T09:52:05.181Z,53.25
2023-07-18T09:54:34.609Z,54.00
2023-07-18T09:57:13.077Z,53.36
2023-07-18T09:59:41.487Z,51.93
2023-07-18T10:02:11.984Z,51.85
2023-07-18T10:04:39.948Z,52.19
2023-07-18T10:07:12.143Z,50.18
2023-07-18T10:09:40.429Z,49.88
2023-07-18T10:12:09.411Z,48.81
2023-07-18T10:14:51.303Z,47.42
2023-07-18T10:17:41.904Z,45.37
2023-07-18T10:20:23.010Z,43.69
2023-07-18T10:23:00.325Z,42.59
2023-07-18T10:25:31.182Z,41.90
2023-07-18T10:28:01.360Z,40.62
2023-07-18T10:30:43.044Z,39.90
2023-07-18T10:33:11.110Z,39.45
2023-07-18T10:35:43.091Z,38.94
2023-07-18T10:38:15.623Z,38.01
2023-07-18T10:40:45.955Z,36.39
2023-07-18T10:43:18.211Z,35.55
2023-07-18T10:45:46.400Z,34.83
2023-07-18T10:48:17.172Z,35.10
2023-07-18T10:50:47.563Z,36.63
2023-07-18T10:53:21.384Z,38.65
2023-07-18T10:55:49.837Z,40.05
2023-07-18T10:58:20.885Z,41.37
2023-07-18T11:00:51.255Z,42.29
2023-07-18T11:03:37.068Z,42.50
2023-07-18T11:06:08.038Z,43.14
2023-07-18T11:08:35.630Z,43.67
2023-07-18T11:11:05.528Z,43.31
2023-07-18T11:13:39.141Z,41.98
2023-07-18T11:16:16.196Z,41.20
2023-07-18T11:18:49.570Z,40.31
2023-07-18T11:21:20.140Z,39.20
2023-07-18T11:23:49.120Z,38.43
2023-07-18T11:26:19.690Z,37.65
2023-07-18T11:28:53.135Z,36.84
2023-07-18T11:31:41.112Z,36.20
2023-07-18T11:34:10.331Z,35.82
2023-07-18T11:36:41.663Z,35.92
2023-07-18T11:39:21.479Z,35.50
2023-07-18T11:41:50.137Z,35.07
2023-07-18T11:44:27.134Z,35.12
2023-07-18T11:46:56.177Z,34.56
2023-07-18T11:49:36.269Z,33.77
2023-07-18T11:52:07.311Z,33.16
2023-07-18T11:54:38.591Z,32.43
2023-07-18T11:57:07.534Z,31.82
2023-07-18T11:59:35.598Z,32.02
2023-07-18T12:02:04.069Z,33.03
2023-07-18T12:04:32.625Z,33.38
2023-07-18T12:07:00.129Z,33.59
2023-07-18T12:09:27.667Z,33.92
2023-07-18T12:11:55.667Z,34.66
2023-07-18T12:14:23.060Z,34.59
2023-07-18T12:16:50.557Z,34.15
2023-07-18T12:19:20.575Z,33.70
2023-07-18T12:21:50.378Z,33.94
2023-07-18T12:24:19.444Z,34.94
2023-07-18T12:26:46.830Z,35.99
2023-07-18T12:29:16.970Z,37.01
2023-07-18T12:31:50.583Z,38.00
2023-07-18T12:34:19.116Z,37.83
2023-07-18T12:36:47.569Z,37.63
2023-07-18T12:39:17.051Z,39.02
2023-07-18T12:41:44.506Z,39.19
2023-07-18T12:44:25.563Z,38.75
2023-07-18T12:46:56.743Z,39.26
2023-07-18T12:51:55.266Z,39.86
2023-07-18T12:54:22.615Z,40.48
2023-07-18T12:56:50.682Z,40.83
2023-07-18T12:59:19.498Z,41.15
2023-07-18T13:01:47.586Z,40.86
2023-07-18T13:04:15.707Z,40.65
2023-07-18T13:06:42.959Z,40.49
2023-07-18T13:09:10.411Z,40.47
2023-07-18T13:11:37.814Z,40.76
2023-07-18T13:14:05.030Z,40.69
2023-07-18T13:16:32.336Z,40.22
2023-07-18T13:18:59.701Z,39.46
2023-07-18T13:21:26.921Z,38.59
2023-07-18T13:23:54.180Z,38.78
2023-07-18T13:26:23.737Z,38.74
2023-07-18T13:28:50.872Z,37.96
2023-07-18T13:31:18.229Z,37.44
2023-07-18T13:33:46.561Z,37.80
2023-07-18T13:36:14.763Z,38.39
2023-07-18T13:38:42.245Z,38.99
2023-07-18T13:41:10.426Z,40.12
2023-07-18T13:43:40.324Z,41.04
2023-07-18T13:46:08.552Z,41.82
2023-07-18T13:48:36.197Z,41.33
2023-07-18T13:51:04.070Z,40.92
2023-07-18T13:53:31.639Z,40.57
2023-07-18T13:55:59.556Z,39.32
2023-07-18T13:58:27.141Z,39.09
2023-07-18T14:00:56.429Z,39.42
2023-07-18T14:03:34.070Z,39.57
2023-07-18T14:06:03.035Z,39.51
2023-07-18T14:08:31.297Z,39.47
2023-07-18T14:10:59.114Z,38.80
2023-07-18T14:13:27.247Z,38.70
2023-07-18T14:15:55.550Z,38.85
2023-07-18T14:18:23.130Z,38.87
2023-07-18T14:20:50.532Z,38.89
2023-07-18T14:23:18.196Z,38.51
2023-07-18T14:25:49.124Z,38.20
2023-07-18T14:28:17.391Z,38.04
2023-07-18T14:30:45.293Z,37.53
2023-07-18T14:33:14.970Z,37.74
2023-07-18T14:35:43.003Z,37.92
2023-07-18T14:38:12.042Z,38.03
2023-07-18T14:40:40.680Z,38.28
2023-07-18T14:43:10.764Z,38.25
2023-07-18T14:45:38.768Z,37.95
2023-07-18T14:48:08.112Z,38.12
2023-07-18T14:50:35.907Z,38.17
2023-07-18T14:53:03.359Z,37.85
2023-07-18T14:55:34.465Z,37.90
2023-07-18T14:58:03.372Z,37.97
2023-07-18T15:00:30.996Z,37.58
2023-07-18T15:02:58.740Z,37.54
2023-07-18T15:05:27.604Z,37.61
2023-07-18T15:07:55.076Z,37.62
2023-07-18T15:10:22.580Z,37.81
2023-07-18T15:12:49.940Z,37.93
2023-07-18T15:15:19.192Z,37.90
2023-07-18T15:17:47.893Z,38.35
2023-07-18T15:20:16.991Z,38.73
2023-07-18T15:22:44.937Z,38.80
2023-07-18T15:25:12.405Z,38.45
2023-07-18T15:27:41.758Z,38.40
2023-07-18T15:30:11.468Z,38.25
2023-07-18T15:32:45.229Z,38.12
2023-07-18T15:35:14.482Z,38.16
2023-07-18T15:37:44.390Z,38.34
2023-07-18T15:40:12.817Z,38.49
2023-07-18T15:42:41.907Z,38.18
2023-07-18T15:45:10.176Z,37.86
2023-07-18T15:47:37.530Z,37.37
2023-07-18T15:50:07.556Z,36.99
2023-07-18T15:52:35.175Z,36.13
2023-07-18T15:55:02.346Z,36.06
2023-07-18T15:57:35.096Z,36.39
2023-07-18T16:00:03.753Z,36.31
2023-07-18T16:02:35.511Z,36.56
2023-07-18T16:05:08.790Z,36.26
2023-07-18T16:07:36.644Z,36.34
2023-07-18T16:10:04.473Z,36.51
2023-07-18T16:12:31.762Z,36.82
2023-07-18T16:15:00.053Z,36.66
2023-07-18T16:17:28.895Z,36.91
2023-07-18T16:19:57.379Z,36.80
2023-07-18T16:22:24.889Z,36.63
2023-07-18T16:24:52.781Z,36.63
2023-07-18T16:27:20.551Z,36.54
2023-07-18T16:29:47.930Z,36.27
2023-07-18T16:32:15.973Z,35.70
2023-07-18T16:34:43.567Z,35.63
2023-07-18T16:37:11.756Z,35.78
2023-07-18T16:39:39.894Z,35.60
2023-07-18T16:42:22.798Z,35.54
2023-07-18T16:44:52.041Z,35.19
2023-07-18T16:47:20.336Z,35.55
2023-07-18T16:49:47.988Z,35.35
2023-07-18T16:52:16.909Z,35.03
2023-07-18T16:54:45.078Z,34.83
2023-07-18T16:57:14.886Z,34.91
2023-07-18T16:59:42.644Z,34.70
2023-07-18T17:02:10.489Z,34.71
2023-07-18T17:04:37.906Z,35.02
2023-07-18T17:07:05.840Z,34.95
2023-07-18T17:09:33.155Z,35.13
2023-07-18T17:12:00.545Z,34.99
2023-07-18T17:14:27.925Z,34.98
2023-07-18T17:16:55.461Z,35.13
2023-07-18T17:19:22.948Z,34.97
2023-07-18T17:21:50.363Z,35.00
2023-07-18T17:24:18.023Z,34.66
2023-07-18T17:26:45.387Z,34.63
2023-07-18T17:29:12.760Z,34.66
2023-07-18T17:31:39.915Z,34.34
2023-07-18T17:34:07.658Z,34.25
2023-07-18T17:36:35.837Z,34.15
2023-07-18T17:39:04.034Z,34.00
2023-07-18T17:41:31.565Z,33.82
2023-07-18T17:43:58.815Z,33.49
2023-07-18T17:46:26.087Z,33.39
2023-07-18T17:48:53.432Z,33.34
2023-07-18T17:51:21.182Z,33.21
2023-07-18T17:53:48.768Z,32.42
2023-07-18T17:56:16.558Z,31.54
2023-07-18T17:58:44.545Z,30.72
2023-07-18T18:01:12.641Z,30.33
2023-07-18T18:03:40.520Z,30.60
2023-07-18T18:06:10.904Z,30.76
2023-07-18T18:08:38.370Z,30.88
2023-07-18T18:11:06.127Z,31.07
2023-07-18T18:13:33.561Z,31.31
2023-07-18T18:16:07.943Z,30.89
2023-07-18T18:18:37.160Z,30.55
2023-07-18T18:21:05.041Z,30.60
2023-07-18T18:26:04.969Z,30.32
2023-07-18T18:28:33.296Z,29.91
2023-07-18T18:31:01.038Z,29.73
2023-07-18T18:33:29.071Z,29.98
2023-07-18T18:35:57.556Z,29.64
2023-07-18T18:38:25.601Z,29.53
2023-07-18T18:40:53.905Z,29.45
2023-07-18T18:43:21.151Z,29.42
2023-07-18T18:45:48.441Z,29.33
2023-07-18T18:48:15.735Z,29.34
2023-07-18T18:50:43.115Z,29.47
2023-07-18T18:53:10.345Z,29.53
2023-07-18T18:55:38.235Z,29.70
2023-07-18T18:58:07.904Z,29.83
2023-07-18T19:00:35.948Z,29.65
2023-07-18T19:03:04.290Z,29.49
2023-07-18T19:05:31.734Z,28.58
2023-07-18T19:07:58.913Z,26.94
2023-07-18T19:10:27.986Z,26.52
2023-07-18T19:12:55.349Z,26.09
2023-07-18T19:15:23.259Z,26.15
2023-07-18T19:17:50.656Z,26.32
2023-07-18T19:20:17.947Z,26.35
2023-07-18T19:22:46.299Z,26.43
2023-07-18T19:25:14.393Z,26.43
2023-07-18T19:27:41.826Z,26.32
2023-07-18T19:30:11.954Z,25.77
2023-07-18T19:32:44.475Z,25.15
2023-07-18T19:35:12.113Z,24.78
2023-07-18T19:37:40.054Z,24.76
2023-07-18T19:40:10.499Z,24.77
2023-07-18T19:42:37.786Z,25.13
2023-07-18T19:45:05.881Z,25.42
2023-07-18T19:47:33.109Z,25.26
2023-07-18T19:50:01.017Z,25.01
2023-07-18T19:52:28.891Z,25.15
2023-07-18T19:54:56.098Z,25.48
2023-07-18T19:57:23.565Z,25.39
2023-07-18T19:59:51.559Z,25.36
2023-07-18T20:02:19.240Z,25.30
2023-07-18T20:04:46.637Z,25.08
2023-07-18T20:07:14.422Z,25.30
2023-07-18T20:09:42.131Z,25.45
2023-07-18T20:12:09.834Z,26.00
2023-07-18T20:14:37.585Z,25.52
2023-07-18T20:17:05.705Z,25.46
2023-07-18T20:19:33.037Z,24.76
2023-07-18T20:22:00.788Z,24.71
2023-07-18T20:24:28.179Z,24.84
2023-07-18T20:26:55.599Z,24.91
2023-07-18T20:29:22.874Z,24.99
2023-07-18T20:31:50.068Z,25.03
2023-07-18T20:34:17.582Z,25.16
2023-07-18T20:36:45.411Z,25.03
2023-07-18T20:39:12.982Z,25.36
2023-07-18T20:41:41.097Z,25.60
2023-07-18T20:44:09.192Z,24.74
2023-07-18T20:46:37.207Z,24.25
2023-07-18T20:49:04.677Z,24.62
2023-07-18T20:51:32.203Z,24.71
2023-07-18T20:53:59.521Z,24.87
2023-07-18T20:56:27.455Z,24.69
2023-07-18T20:58:55.647Z,24.79
2023-07-18T21:01:23.745Z,24.78
2023-07-18T21:03:52.005Z,24.65
2023-07-18T21:06:19.402Z,24.72
2023-07-18T21:08:47.164Z,24.80
2023-07-18T21:11:16.080Z,24.65
2023-07-18T21:13:44.315Z,24.78
2023-07-18T21:16:12.553Z,25.08
2023-07-18T21:18:39.943Z,25.37
2023-07-18T21:21:07.489Z,25.29
2023-07-18T21:23:34.976Z,24.83
2023-07-18T21:26:02.377Z,24.97
2023-07-18T21:28:31.790Z,24.54
2023-07-18T21:30:59.219Z,24.26
2023-07-18T21:33:27.001Z,24.19
2023-07-18T21:35:54.555Z,24.60
2023-07-18T21:38:22.145Z,24.46
2023-07-18T21:40:49.509Z,24.13
2023-07-18T21:43:16.804Z,23.80
2023-07-18T21:45:44.099Z,24.06
2023-07-18T21:48:11.463Z,24.40
2023-07-18T21:50:40.217Z,24.32
2023-07-18T21:53:08.688Z,24.62
2023-07-18T21:55:40.604Z,24.52
2023-07-18T21:58:08.515Z,24.50
2023-07-18T22:00:37.808Z,24.89
2023-07-18T22:03:06.104Z,24.61
2023-07-18T22:05:33.363Z,24.72
2023-07-18T22:08:00.625Z,24.48
2023-07-18T22:10:28.183Z,24.34
2023-07-18T22:12:55.451Z,24.27
2023-07-18T22:15:22.745Z,24.11
2023-07-18T22:17:50.317Z,23.47
2023-07-18T22:20:17.618Z,23.56
2023-07-18T22:22:45.217Z,23.69
2023-07-18T22:25:13.258Z,24.14
2023-07-18T22:27:41.000Z,24.30
2023-07-18T22:30:09.625Z,24.17
2023-07-18T22:32:37.184Z,24.36
2023-07-18T22:35:05.068Z,24.52
2023-07-18T22:37:35.433Z,24.29
2023-07-18T22:40:03.984Z,24.28
2023-07-18T22:42:31.697Z,24.25
2023-07-18T22:44:58.875Z,24.43
2023-07-18T22:47:26.110Z,24.61
2023-07-18T22:49:53.805Z,24.50
2023-07-18T22:52:21.296Z,24.26
2023-07-18T22:54:50.878Z,24.27
2023-07-18T22:57:19.428Z,24.65
2023-07-18T22:59:50.302Z,24.71
2023-07-18T23:02:18.092Z,24.55
2023-07-18T23:04:46.421Z,24.55
2023-07-18T23:07:14.903Z,24.48
2023-07-18T23:09:42.281Z,24.24
2023-07-18T23:12:12.344Z,24.07
2023-07-18T23:14:40.064Z,24.02
2023-07-18T23:17:07.545Z,24.00
2023-07-18T23:19:35.176Z,23.97
2023-07-18T23:22:02.578Z,24.21
2023-07-18T23:24:30.465Z,24.12
2023-07-18T23:26:57.688Z,23.92
2023-07-18T23:29:25.361Z,24.12
2023-07-18T23:31:52.688Z,23.92
2023-07-18T23:34:20.334Z,23.81
2023-07-18T23:36:48.889Z,23.97
2023-07-18T23:39:17.530Z,23.91
2023-07-18T23:41:44.798Z,23.80
2023-07-18T23:44:12.247Z,23.81
2023-07-18T23:46:39.758Z,23.76
2023-07-18T23:49:07.426Z,23.79
2023-07-18T23:51:35.028Z,23.77
2023-07-18T23:54:02.182Z,23.76
2023-07-18T23:56:30.102Z,23.99
2023-07-18T23:58:58.769Z,23.77
